sensor_id;sensor_type;location;lat;lon;timestamp;P1;durP1;ratioP1;P2;durP2;ratioP2
2305;SDS011;1161;51.922;8.896;2023-09-30T00:01:26;13.50;;;4.70;;
2305;SDS011;1161;51.922;8.896;2023-09-30T00:03:53;16.47;;;4.50;;
2305;SDS011;1161;51.922;8.896;2023-09-30T00:06:20;15.13;;;4.97;;
2305;SDS011;1161;51.922;8.896;2023-09-30T00:08:47;22.27;;;5.73;;
2305;SDS011;1161;51.922;8.896;2023-09-30T00:11:14;43.07;;;7.57;;
2305;SDS011;1161;51.922;8.896;2023-09-30T00:13:42;15.97;;;4.50;;
2305;SDS011;1161;51.922;8.896;2023-09-30T00:16:10;17.13;;;5.83;;
2305;SDS011;1161;51.922;8.896;2023-09-30T00:18:37;16.97;;;5.10;;
2305;SDS011;1161;51.922;8.896;2023-09-30T00:21:04;17.93;;;4.27;;
2305;SDS011;1161;51.922;8.896;2023-09-30T00:23:31;20.77;;;4.87;;
2305;SDS011;1161;51.922;8.896;2023-09-30T00:25:58;15.87;;;4.90;;
2305;SDS011;1161;51.922;8.896;2023-09-30T00:28:26;11.33;;;5.13;;
2305;SDS011;1161;51.922;8.896;2023-09-30T00:30:53;22.03;;;5.93;;
2305;SDS011;1161;51.922;8.896;2023-09-30T00:33:22;17.30;;;5.67;;
2305;SDS011;1161;51.922;8.896;2023-09-30T00:35:50;13.63;;;5.07;;
2305;SDS011;1161;51.922;8.896;2023-09-30T00:38:17;12.10;;;4.60;;
2305;SDS011;1161;51.922;8.896;2023-09-30T00:40:47;9.93;;;4.73;;
2305;SDS011;1161;51.922;8.896;2023-09-30T00:43:18;13.80;;;5.60;;
2305;SDS011;1161;51.922;8.896;2023-09-30T00:45:45;16.43;;;4.73;;
2305;SDS011;1161;51.922;8.896;2023-09-30T00:48:12;15.53;;;6.53;;
2305;SDS011;1161;51.922;8.896;2023-09-30T00:50:40;16.83;;;4.70;;
2305;SDS011;1161;51.922;8.896;2023-09-30T00:53:07;10.53;;;3.87;;
2305;SDS011;1161;51.922;8.896;2023-09-30T00:55:36;10.30;;;4.43;;
2305;SDS011;1161;51.922;8.896;2023-09-30T00:58:03;14.57;;;4.83;;
2305;SDS011;1161;51.922;8.896;2023-09-30T01:00:30;25.53;;;5.33;;
2305;SDS011;1161;51.922;8.896;2023-09-30T01:02:57;16.60;;;5.10;;
2305;SDS011;1161;51.922;8.896;2023-09-30T01:05:29;9.70;;;5.47;;
2305;SDS011;1161;51.922;8.896;2023-09-30T01:07:57;18.47;;;5.23;;
2305;SDS011;1161;51.922;8.896;2023-09-30T01:10:24;28.43;;;6.30;;
2305;SDS011;1161;51.922;8.896;2023-09-30T01:12:51;24.00;;;5.93;;
2305;SDS011;1161;51.922;8.896;2023-09-30T01:15:18;18.30;;;5.90;;
2305;SDS011;1161;51.922;8.896;2023-09-30T01:17:45;15.07;;;5.40;;
2305;SDS011;1161;51.922;8.896;2023-09-30T01:20:12;25.03;;;5.90;;
2305;SDS011;1161;51.922;8.896;2023-09-30T01:22:48;16.70;;;5.83;;
2305;SDS011;1161;51.922;8.896;2023-09-30T01:25:15;25.33;;;5.47;;
2305;SDS011;1161;51.922;8.896;2023-09-30T01:27:42;35.47;;;5.90;;
2305;SDS011;1161;51.922;8.896;2023-09-30T01:30:09;16.23;;;5.80;;
2305;SDS011;1161;51.922;8.896;2023-09-30T01:32:39;29.93;;;5.40;;
2305;SDS011;1161;51.922;8.896;2023-09-30T01:35:06;19.53;;;4.70;;
2305;SDS011;1161;51.922;8.896;2023-09-30T01:37:34;17.87;;;6.00;;
2305;SDS011;1161;51.922;8.896;2023-09-30T01:40:02;21.63;;;5.60;;
2305;SDS011;1161;51.922;8.896;2023-09-30T01:42:34;11.97;;;4.67;;
2305;SDS011;1161;51.922;8.896;2023-09-30T01:45:00;18.57;;;5.40;;
2305;SDS011;1161;51.922;8.896;2023-09-30T01:47:27;13.57;;;5.97;;
2305;SDS011;1161;51.922;8.896;2023-09-30T01:49:54;11.03;;;5.27;;
2305;SDS011;1161;51.922;8.896;2023-09-30T01:52:21;14.13;;;5.23;;
2305;SDS011;1161;51.922;8.896;2023-09-30T01:54:49;15.13;;;5.30;;
2305;SDS011;1161;51.922;8.896;2023-09-30T01:57:18;18.20;;;5.73;;
2305;SDS011;1161;51.922;8.896;2023-09-30T01:59:46;34.30;;;5.83;;
2305;SDS011;1161;51.922;8.896;2023-09-30T02:02:13;35.13;;;6.50;;
2305;SDS011;1161;51.922;8.896;2023-09-30T02:04:42;27.97;;;6.70;;
2305;SDS011;1161;51.922;8.896;2023-09-30T02:07:09;13.77;;;4.93;;
2305;SDS011;1161;51.922;8.896;2023-09-30T02:09:36;15.07;;;7.53;;
2305;SDS011;1161;51.922;8.896;2023-09-30T02:12:03;20.57;;;5.50;;
2305;SDS011;1161;51.922;8.896;2023-09-30T02:14:31;25.60;;;6.63;;
2305;SDS011;1161;51.922;8.896;2023-09-30T02:16:58;23.93;;;6.57;;
2305;SDS011;1161;51.922;8.896;2023-09-30T02:19:25;17.40;;;5.63;;
2305;SDS011;1161;51.922;8.896;2023-09-30T02:21:53;22.43;;;6.13;;
2305;SDS011;1161;51.922;8.896;2023-09-30T02:24:20;14.60;;;5.03;;
2305;SDS011;1161;51.922;8.896;2023-09-30T02:26:48;18.60;;;6.00;;
2305;SDS011;1161;51.922;8.896;2023-09-30T02:29:15;20.97;;;5.47;;
2305;SDS011;1161;51.922;8.896;2023-09-30T02:31:43;16.77;;;5.50;;
2305;SDS011;1161;51.922;8.896;2023-09-30T02:34:10;13.20;;;4.80;;
2305;SDS011;1161;51.922;8.896;2023-09-30T02:36:37;12.77;;;5.80;;
2305;SDS011;1161;51.922;8.896;2023-09-30T02:39:04;11.87;;;5.50;;
2305;SDS011;1161;51.922;8.896;2023-09-30T02:41:34;25.93;;;5.03;;
2305;SDS011;1161;51.922;8.896;2023-09-30T02:44:00;7.50;;;4.57;;
2305;SDS011;1161;51.922;8.896;2023-09-30T02:46:26;13.40;;;5.10;;
2305;SDS011;1161;51.922;8.896;2023-09-30T02:48:55;22.70;;;5.40;;
2305;SDS011;1161;51.922;8.896;2023-09-30T02:51:21;16.10;;;4.97;;
2305;SDS011;1161;51.922;8.896;2023-09-30T02:53:48;22.67;;;5.37;;
2305;SDS011;1161;51.922;8.896;2023-09-30T02:56:15;16.13;;;5.00;;
2305;SDS011;1161;51.922;8.896;2023-09-30T02:58:43;13.80;;;4.47;;
2305;SDS011;1161;51.922;8.896;2023-09-30T03:01:13;13.13;;;6.03;;
2305;SDS011;1161;51.922;8.896;2023-09-30T03:03:42;19.27;;;4.23;;
2305;SDS011;1161;51.922;8.896;2023-09-30T03:06:11;12.10;;;4.70;;
2305;SDS011;1161;51.922;8.896;2023-09-30T03:08:40;24.43;;;5.00;;
2305;SDS011;1161;51.922;8.896;2023-09-30T03:11:07;17.03;;;4.60;;
2305;SDS011;1161;51.922;8.896;2023-09-30T03:13:34;16.73;;;4.23;;
2305;SDS011;1161;51.922;8.896;2023-09-30T03:16:01;8.10;;;5.37;;
2305;SDS011;1161;51.922;8.896;2023-09-30T03:18:28;15.43;;;5.60;;
2305;SDS011;1161;51.922;8.896;2023-09-30T03:20:58;11.73;;;4.77;;
2305;SDS011;1161;51.922;8.896;2023-09-30T03:23:27;14.83;;;4.73;;
2305;SDS011;1161;51.922;8.896;2023-09-30T03:25:56;25.93;;;5.13;;
2305;SDS011;1161;51.922;8.896;2023-09-30T03:28:23;19.93;;;5.70;;
2305;SDS011;1161;51.922;8.896;2023-09-30T03:30:51;8.30;;;5.00;;
2305;SDS011;1161;51.922;8.896;2023-09-30T03:33:18;22.83;;;6.80;;
2305;SDS011;1161;51.922;8.896;2023-09-30T03:35:47;12.13;;;4.50;;
2305;SDS011;1161;51.922;8.896;2023-09-30T03:38:15;18.80;;;6.43;;
2305;SDS011;1161;51.922;8.896;2023-09-30T03:40:46;15.53;;;5.73;;
2305;SDS011;1161;51.922;8.896;2023-09-30T03:43:14;21.17;;;7.73;;
2305;SDS011;1161;51.922;8.896;2023-09-30T03:45:47;15.37;;;4.60;;
2305;SDS011;1161;51.922;8.896;2023-09-30T03:48:14;14.13;;;5.07;;
2305;SDS011;1161;51.922;8.896;2023-09-30T03:50:51;10.40;;;5.90;;
2305;SDS011;1161;51.922;8.896;2023-09-30T03:53:20;17.13;;;5.00;;
2305;SDS011;1161;51.922;8.896;2023-09-30T03:55:53;12.90;;;4.40;;
2305;SDS011;1161;51.922;8.896;2023-09-30T03:58:25;12.97;;;4.63;;
2305;SDS011;1161;51.922;8.896;2023-09-30T04:00:54;14.30;;;4.13;;
2305;SDS011;1161;51.922;8.896;2023-09-30T04:03:29;13.70;;;5.90;;
2305;SDS011;1161;51.922;8.896;2023-09-30T04:06:01;16.03;;;6.10;;
2305;SDS011;1161;51.922;8.896;2023-09-30T04:08:29;16.73;;;6.10;;
2305;SDS011;1161;51.922;8.896;2023-09-30T04:11:00;15.50;;;4.90;;
2305;SDS011;1161;51.922;8.896;2023-09-30T04:13:28;9.33;;;4.40;;
2305;SDS011;1161;51.922;8.896;2023-09-30T04:15:57;21.57;;;5.40;;
2305;SDS011;1161;51.922;8.896;2023-09-30T04:18:26;22.47;;;6.80;;
2305;SDS011;1161;51.922;8.896;2023-09-30T04:20:54;19.83;;;6.97;;
2305;SDS011;1161;51.922;8.896;2023-09-30T04:23:21;19.50;;;7.20;;
2305;SDS011;1161;51.922;8.896;2023-09-30T04:25:49;28.93;;;6.53;;
2305;SDS011;1161;51.922;8.896;2023-09-30T04:28:19;16.77;;;5.23;;
2305;SDS011;1161;51.922;8.896;2023-09-30T04:30:47;15.93;;;5.10;;
2305;SDS011;1161;51.922;8.896;2023-09-30T04:33:17;13.97;;;5.73;;
2305;SDS011;1161;51.922;8.896;2023-09-30T04:35:49;23.17;;;6.23;;
2305;SDS011;1161;51.922;8.896;2023-09-30T04:38:18;14.93;;;4.40;;
2305;SDS011;1161;51.922;8.896;2023-09-30T04:40:47;16.00;;;4.80;;
2305;SDS011;1161;51.922;8.896;2023-09-30T04:43:22;18.83;;;6.60;;
2305;SDS011;1161;51.922;8.896;2023-09-30T04:45:49;17.17;;;5.53;;
2305;SDS011;1161;51.922;8.896;2023-09-30T04:48:20;20.23;;;5.23;;
2305;SDS011;1161;51.922;8.896;2023-09-30T04:50:49;17.20;;;5.40;;
2305;SDS011;1161;51.922;8.896;2023-09-30T04:53:19;22.30;;;6.37;;
2305;SDS011;1161;51.922;8.896;2023-09-30T04:55:50;14.67;;;4.60;;
2305;SDS011;1161;51.922;8.896;2023-09-30T04:58:16;19.60;;;6.10;;
2305;SDS011;1161;51.922;8.896;2023-09-30T05:00:45;15.30;;;4.93;;
2305;SDS011;1161;51.922;8.896;2023-09-30T05:03:11;15.50;;;4.33;;
2305;SDS011;1161;51.922;8.896;2023-09-30T05:05:38;9.37;;;4.80;;
2305;SDS011;1161;51.922;8.896;2023-09-30T05:08:05;12.83;;;5.40;;
2305;SDS011;1161;51.922;8.896;2023-09-30T05:10:32;40.50;;;8.23;;
2305;SDS011;1161;51.922;8.896;2023-09-30T05:12:59;18.07;;;8.30;;
2305;SDS011;1161;51.922;8.896;2023-09-30T05:15:26;33.33;;;8.60;;
2305;SDS011;1161;51.922;8.896;2023-09-30T05:17:56;20.13;;;7.77;;
2305;SDS011;1161;51.922;8.896;2023-09-30T05:20:23;36.33;;;10.40;;
2305;SDS011;1161;51.922;8.896;2023-09-30T05:22:50;24.47;;;12.50;;
2305;SDS011;1161;51.922;8.896;2023-09-30T05:25:16;52.07;;;13.53;;
2305;SDS011;1161;51.922;8.896;2023-09-30T05:27:43;23.83;;;10.70;;
2305;SDS011;1161;51.922;8.896;2023-09-30T05:30:10;37.77;;;13.97;;
2305;SDS011;1161;51.922;8.896;2023-09-30T05:32:40;34.40;;;14.00;;
2305;SDS011;1161;51.922;8.896;2023-09-30T05:35:08;40.57;;;13.57;;
2305;SDS011;1161;51.922;8.896;2023-09-30T05:37:38;36.37;;;15.20;;
2305;SDS011;1161;51.922;8.896;2023-09-30T05:40:06;32.20;;;11.43;;
2305;SDS011;1161;51.922;8.896;2023-09-30T05:42:42;52.40;;;14.83;;
2305;SDS011;1161;51.922;8.896;2023-09-30T05:45:10;29.50;;;12.33;;
2305;SDS011;1161;51.922;8.896;2023-09-30T05:47:38;32.27;;;11.17;;
2305;SDS011;1161;51.922;8.896;2023-09-30T05:50:06;48.83;;;11.70;;
2305;SDS011;1161;51.922;8.896;2023-09-30T05:52:34;27.73;;;13.03;;
2305;SDS011;1161;51.922;8.896;2023-09-30T05:55:03;39.10;;;13.07;;
2305;SDS011;1161;51.922;8.896;2023-09-30T05:57:30;30.40;;;11.10;;
2305;SDS011;1161;51.922;8.896;2023-09-30T05:59:57;34.13;;;10.33;;
2305;SDS011;1161;51.922;8.896;2023-09-30T06:02:24;16.67;;;9.13;;
2305;SDS011;1161;51.922;8.896;2023-09-30T06:04:50;30.90;;;12.70;;
2305;SDS011;1161;51.922;8.896;2023-09-30T06:07:18;27.60;;;12.07;;
2305;SDS011;1161;51.922;8.896;2023-09-30T06:09:47;31.17;;;12.40;;
2305;SDS011;1161;51.922;8.896;2023-09-30T06:12:15;31.30;;;12.83;;
2305;SDS011;1161;51.922;8.896;2023-09-30T06:14:42;29.00;;;12.83;;
2305;SDS011;1161;51.922;8.896;2023-09-30T06:17:09;33.43;;;12.50;;
2305;SDS011;1161;51.922;8.896;2023-09-30T06:19:36;38.83;;;11.07;;
2305;SDS011;1161;51.922;8.896;2023-09-30T06:22:03;53.50;;;12.93;;
2305;SDS011;1161;51.922;8.896;2023-09-30T06:24:30;34.73;;;12.50;;
2305;SDS011;1161;51.922;8.896;2023-09-30T06:26:58;34.40;;;11.37;;
2305;SDS011;1161;51.922;8.896;2023-09-30T06:29:25;30.93;;;11.50;;
2305;SDS011;1161;51.922;8.896;2023-09-30T06:31:52;36.43;;;13.87;;
2305;SDS011;1161;51.922;8.896;2023-09-30T06:34:19;45.93;;;14.47;;
2305;SDS011;1161;51.922;8.896;2023-09-30T06:36:46;37.83;;;13.43;;
2305;SDS011;1161;51.922;8.896;2023-09-30T06:39:13;32.30;;;12.70;;
2305;SDS011;1161;51.922;8.896;2023-09-30T06:41:41;26.17;;;13.13;;
2305;SDS011;1161;51.922;8.896;2023-09-30T06:44:10;31.87;;;12.33;;
2305;SDS011;1161;51.922;8.896;2023-09-30T06:46:38;33.90;;;13.27;;
2305;SDS011;1161;51.922;8.896;2023-09-30T06:49:05;29.90;;;15.07;;
2305;SDS011;1161;51.922;8.896;2023-09-30T06:51:32;31.70;;;13.30;;
2305;SDS011;1161;51.922;8.896;2023-09-30T06:53:59;37.57;;;14.47;;
2305;SDS011;1161;51.922;8.896;2023-09-30T06:56:26;54.03;;;19.87;;
2305;SDS011;1161;51.922;8.896;2023-09-30T06:58:53;56.23;;;17.23;;
2305;SDS011;1161;51.922;8.896;2023-09-30T07:01:21;48.83;;;16.87;;
2305;SDS011;1161;51.922;8.896;2023-09-30T07:03:48;50.97;;;19.73;;
2305;SDS011;1161;51.922;8.896;2023-09-30T07:06:21;50.30;;;17.63;;
2305;SDS011;1161;51.922;8.896;2023-09-30T07:08:49;43.67;;;16.80;;
2305;SDS011;1161;51.922;8.896;2023-09-30T07:11:16;50.37;;;18.53;;
2305;SDS011;1161;51.922;8.896;2023-09-30T07:13:43;38.13;;;17.80;;
2305;SDS011;1161;51.922;8.896;2023-09-30T07:16:10;59.23;;;18.30;;
2305;SDS011;1161;51.922;8.896;2023-09-30T07:18:38;46.53;;;15.50;;
2305;SDS011;1161;51.922;8.896;2023-09-30T07:21:04;39.43;;;15.70;;
2305;SDS011;1161;51.922;8.896;2023-09-30T07:23:32;55.87;;;17.23;;
2305;SDS011;1161;51.922;8.896;2023-09-30T07:25:59;34.97;;;17.47;;
2305;SDS011;1161;51.922;8.896;2023-09-30T07:28:26;38.27;;;14.83;;
2305;SDS011;1161;51.922;8.896;2023-09-30T07:30:52;39.70;;;14.70;;
2305;SDS011;1161;51.922;8.896;2023-09-30T07:33:20;41.07;;;16.73;;
2305;SDS011;1161;51.922;8.896;2023-09-30T07:35:48;36.40;;;16.43;;
2305;SDS011;1161;51.922;8.896;2023-09-30T07:38:15;43.57;;;12.57;;
2305;SDS011;1161;51.922;8.896;2023-09-30T07:40:42;38.23;;;15.07;;
2305;SDS011;1161;51.922;8.896;2023-09-30T07:43:09;25.53;;;12.00;;
2305;SDS011;1161;51.922;8.896;2023-09-30T07:45:38;30.63;;;11.80;;
2305;SDS011;1161;51.922;8.896;2023-09-30T07:48:04;38.00;;;11.87;;
2305;SDS011;1161;51.922;8.896;2023-09-30T07:50:34;28.97;;;12.67;;
2305;SDS011;1161;51.922;8.896;2023-09-30T07:53:02;29.73;;;11.03;;
2305;SDS011;1161;51.922;8.896;2023-09-30T07:55:29;24.33;;;9.23;;
2305;SDS011;1161;51.922;8.896;2023-09-30T07:57:56;23.63;;;9.80;;
2305;SDS011;1161;51.922;8.896;2023-09-30T08:00:24;32.97;;;11.57;;
2305;SDS011;1161;51.922;8.896;2023-09-30T08:02:51;34.93;;;10.80;;
2305;SDS011;1161;51.922;8.896;2023-09-30T08:05:18;30.50;;;11.60;;
2305;SDS011;1161;51.922;8.896;2023-09-30T08:07:45;21.37;;;9.90;;
2305;SDS011;1161;51.922;8.896;2023-09-30T08:10:16;20.77;;;8.57;;
2305;SDS011;1161;51.922;8.896;2023-09-30T08:12:44;23.07;;;8.77;;
2305;SDS011;1161;51.922;8.896;2023-09-30T08:15:13;17.60;;;7.57;;
2305;SDS011;1161;51.922;8.896;2023-09-30T08:17:41;30.67;;;10.83;;
2305;SDS011;1161;51.922;8.896;2023-09-30T08:20:08;23.60;;;8.73;;
2305;SDS011;1161;51.922;8.896;2023-09-30T08:22:35;21.77;;;8.20;;
2305;SDS011;1161;51.922;8.896;2023-09-30T08:25:02;20.07;;;9.30;;
2305;SDS011;1161;51.922;8.896;2023-09-30T08:27:32;34.60;;;8.50;;
2305;SDS011;1161;51.922;8.896;2023-09-30T08:29:59;16.40;;;7.97;;
2305;SDS011;1161;51.922;8.896;2023-09-30T08:32:31;14.83;;;7.30;;
2305;SDS011;1161;51.922;8.896;2023-09-30T08:34:58;24.07;;;7.93;;
2305;SDS011;1161;51.922;8.896;2023-09-30T08:37:25;20.40;;;6.77;;
2305;SDS011;1161;51.922;8.896;2023-09-30T08:39:52;17.03;;;7.13;;
2305;SDS011;1161;51.922;8.896;2023-09-30T08:42:19;26.73;;;8.00;;
2305;SDS011;1161;51.922;8.896;2023-09-30T08:44:48;11.27;;;7.10;;
2305;SDS011;1161;51.922;8.896;2023-09-30T08:47:15;19.77;;;9.10;;
2305;SDS011;1161;51.922;8.896;2023-09-30T08:49:42;16.23;;;6.60;;
2305;SDS011;1161;51.922;8.896;2023-09-30T08:52:10;20.40;;;7.67;;
2305;SDS011;1161;51.922;8.896;2023-09-30T08:54:37;14.13;;;6.70;;
2305;SDS011;1161;51.922;8.896;2023-09-30T08:57:04;11.37;;;6.30;;
2305;SDS011;1161;51.922;8.896;2023-09-30T08:59:32;11.30;;;6.57;;
2305;SDS011;1161;51.922;8.896;2023-09-30T09:02:03;18.40;;;8.60;;
2305;SDS011;1161;51.922;8.896;2023-09-30T09:04:32;20.93;;;6.93;;
2305;SDS011;1161;51.922;8.896;2023-09-30T09:06:59;25.57;;;7.17;;
2305;SDS011;1161;51.922;8.896;2023-09-30T09:09:26;15.10;;;7.23;;
2305;SDS011;1161;51.922;8.896;2023-09-30T09:11:53;19.93;;;6.40;;
2305;SDS011;1161;51.922;8.896;2023-09-30T09:14:26;17.67;;;5.77;;
2305;SDS011;1161;51.922;8.896;2023-09-30T09:17:06;14.73;;;7.33;;
2305;SDS011;1161;51.922;8.896;2023-09-30T09:19:33;17.13;;;6.67;;
2305;SDS011;1161;51.922;8.896;2023-09-30T09:22:00;18.10;;;8.37;;
2305;SDS011;1161;51.922;8.896;2023-09-30T09:24:30;29.40;;;9.83;;
2305;SDS011;1161;51.922;8.896;2023-09-30T09:27:04;22.10;;;9.53;;
2305;SDS011;1161;51.922;8.896;2023-09-30T09:29:34;21.30;;;10.07;;
2305;SDS011;1161;51.922;8.896;2023-09-30T09:32:10;18.17;;;9.07;;
2305;SDS011;1161;51.922;8.896;2023-09-30T09:34:38;14.67;;;10.10;;
2305;SDS011;1161;51.922;8.896;2023-09-30T09:37:12;39.53;;;10.40;;
2305;SDS011;1161;51.922;8.896;2023-09-30T09:39:45;19.53;;;9.70;;
2305;SDS011;1161;51.922;8.896;2023-09-30T09:42:23;29.03;;;9.87;;
2305;SDS011;1161;51.922;8.896;2023-09-30T09:44:51;19.40;;;9.10;;
2305;SDS011;1161;51.922;8.896;2023-09-30T09:47:22;25.13;;;11.87;;
2305;SDS011;1161;51.922;8.896;2023-09-30T09:49:50;29.97;;;11.57;;
2305;SDS011;1161;51.922;8.896;2023-09-30T09:52:17;22.57;;;10.47;;
2305;SDS011;1161;51.922;8.896;2023-09-30T09:54:45;21.00;;;10.30;;
2305;SDS011;1161;51.922;8.896;2023-09-30T09:57:13;24.87;;;9.23;;
2305;SDS011;1161;51.922;8.896;2023-09-30T09:59:40;22.60;;;8.70;;
2305;SDS011;1161;51.922;8.896;2023-09-30T10:02:09;17.00;;;8.30;;
2305;SDS011;1161;51.922;8.896;2023-09-30T10:04:39;15.60;;;8.23;;
2305;SDS011;1161;51.922;8.896;2023-09-30T10:07:06;19.00;;;7.47;;
2305;SDS011;1161;51.922;8.896;2023-09-30T10:09:33;15.97;;;8.40;;
2305;SDS011;1161;51.922;8.896;2023-09-30T10:12:01;18.20;;;9.03;;
2305;SDS011;1161;51.922;8.896;2023-09-30T10:14:32;21.67;;;7.80;;
2305;SDS011;1161;51.922;8.896;2023-09-30T10:17:01;17.10;;;8.83;;
2305;SDS011;1161;51.922;8.896;2023-09-30T10:19:29;20.43;;;7.40;;
2305;SDS011;1161;51.922;8.896;2023-09-30T10:24:50;24.93;;;7.40;;
2305;SDS011;1161;51.922;8.896;2023-09-30T10:27:28;21.40;;;7.70;;
2305;SDS011;1161;51.922;8.896;2023-09-30T10:29:57;12.47;;;8.47;;
2305;SDS011;1161;51.922;8.896;2023-09-30T10:41:07;14.13;;;5.93;;
2305;SDS011;1161;51.922;8.896;2023-09-30T10:43:35;22.87;;;7.20;;
2305;SDS011;1161;51.922;8.896;2023-09-30T10:46:03;22.97;;;7.90;;
2305;SDS011;1161;51.922;8.896;2023-09-30T10:48:36;17.70;;;7.40;;
2305;SDS011;1161;51.922;8.896;2023-09-30T10:51:12;9.63;;;6.00;;
2305;SDS011;1161;51.922;8.896;2023-09-30T10:53:46;10.23;;;5.27;;
2305;SDS011;1161;51.922;8.896;2023-09-30T10:56:15;12.50;;;5.53;;
2305;SDS011;1161;51.922;8.896;2023-09-30T10:58:43;6.30;;;4.67;;
2305;SDS011;1161;51.922;8.896;2023-09-30T11:01:11;8.50;;;5.67;;
2305;SDS011;1161;51.922;8.896;2023-09-30T11:03:40;9.27;;;4.13;;
2305;SDS011;1161;51.922;8.896;2023-09-30T11:06:07;11.07;;;4.80;;
2305;SDS011;1161;51.922;8.896;2023-09-30T11:08:35;10.60;;;4.60;;
2305;SDS011;1161;51.922;8.896;2023-09-30T11:11:03;6.30;;;4.90;;
2305;SDS011;1161;51.922;8.896;2023-09-30T11:13:33;8.77;;;4.40;;
2305;SDS011;1161;51.922;8.896;2023-09-30T11:16:02;7.20;;;4.20;;
2305;SDS011;1161;51.922;8.896;2023-09-30T11:18:30;17.10;;;6.43;;
2305;SDS011;1161;51.922;8.896;2023-09-30T11:21:07;18.30;;;7.27;;
2305;SDS011;1161;51.922;8.896;2023-09-30T11:23:36;11.37;;;7.70;;
2305;SDS011;1161;51.922;8.896;2023-09-30T11:26:05;15.37;;;6.47;;
2305;SDS011;1161;51.922;8.896;2023-09-30T11:28:35;17.07;;;6.73;;
2305;SDS011;1161;51.922;8.896;2023-09-30T11:31:06;19.23;;;6.40;;
2305;SDS011;1161;51.922;8.896;2023-09-30T11:33:48;11.10;;;6.30;;
2305;SDS011;1161;51.922;8.896;2023-09-30T11:36:21;13.63;;;5.60;;
2305;SDS011;1161;51.922;8.896;2023-09-30T11:38:49;14.33;;;6.03;;
2305;SDS011;1161;51.922;8.896;2023-09-30T11:41:19;6.90;;;6.20;;
2305;SDS011;1161;51.922;8.896;2023-09-30T11:44:03;8.63;;;5.90;;
2305;SDS011;1161;51.922;8.896;2023-09-30T11:46:33;19.13;;;8.50;;
2305;SDS011;1161;51.922;8.896;2023-09-30T11:49:23;21.70;;;5.23;;
2305;SDS011;1161;51.922;8.896;2023-09-30T11:51:50;8.60;;;4.60;;
2305;SDS011;1161;51.922;8.896;2023-09-30T11:54:18;10.67;;;3.70;;
2305;SDS011;1161;51.922;8.896;2023-09-30T11:56:46;19.70;;;4.90;;
2305;SDS011;1161;51.922;8.896;2023-09-30T11:59:13;11.07;;;4.30;;
2305;SDS011;1161;51.922;8.896;2023-09-30T12:01:39;7.00;;;4.50;;
2305;SDS011;1161;51.922;8.896;2023-09-30T12:04:06;20.17;;;5.17;;
2305;SDS011;1161;51.922;8.896;2023-09-30T12:06:34;12.80;;;5.00;;
2305;SDS011;1161;51.922;8.896;2023-09-30T12:09:03;14.00;;;5.53;;
2305;SDS011;1161;51.922;8.896;2023-09-30T12:11:30;7.73;;;4.03;;
2305;SDS011;1161;51.922;8.896;2023-09-30T12:13:59;5.93;;;4.50;;
2305;SDS011;1161;51.922;8.896;2023-09-30T12:16:26;7.60;;;4.20;;
2305;SDS011;1161;51.922;8.896;2023-09-30T12:18:52;7.20;;;4.03;;
2305;SDS011;1161;51.922;8.896;2023-09-30T12:21:19;7.80;;;5.30;;
2305;SDS011;1161;51.922;8.896;2023-09-30T12:23:47;4.63;;;4.20;;
2305;SDS011;1161;51.922;8.896;2023-09-30T12:26:15;7.57;;;4.97;;
2305;SDS011;1161;51.922;8.896;2023-09-30T12:28:43;10.87;;;5.50;;
2305;SDS011;1161;51.922;8.896;2023-09-30T12:31:11;5.63;;;4.90;;
2305;SDS011;1161;51.922;8.896;2023-09-30T12:33:39;6.63;;;5.40;;
2305;SDS011;1161;51.922;8.896;2023-09-30T12:36:05;5.63;;;5.03;;
2305;SDS011;1161;51.922;8.896;2023-09-30T12:38:32;11.20;;;6.50;;
2305;SDS011;1161;51.922;8.896;2023-09-30T12:40:59;9.63;;;5.23;;
2305;SDS011;1161;51.922;8.896;2023-09-30T12:43:26;11.93;;;4.63;;
2305;SDS011;1161;51.922;8.896;2023-09-30T12:45:53;7.70;;;5.67;;
2305;SDS011;1161;51.922;8.896;2023-09-30T12:48:21;9.33;;;5.23;;
2305;SDS011;1161;51.922;8.896;2023-09-30T12:50:48;6.37;;;5.20;;
2305;SDS011;1161;51.922;8.896;2023-09-30T12:53:15;7.57;;;5.43;;
2305;SDS011;1161;51.922;8.896;2023-09-30T12:55:42;10.63;;;5.00;;
2305;SDS011;1161;51.922;8.896;2023-09-30T12:58:08;7.00;;;4.87;;
2305;SDS011;1161;51.922;8.896;2023-09-30T13:00:36;7.90;;;3.90;;
2305;SDS011;1161;51.922;8.896;2023-09-30T13:03:03;5.33;;;4.40;;
2305;SDS011;1161;51.922;8.896;2023-09-30T13:05:31;6.50;;;5.40;;
2305;SDS011;1161;51.922;8.896;2023-09-30T13:07:58;12.87;;;5.77;;
2305;SDS011;1161;51.922;8.896;2023-09-30T13:10:25;6.77;;;4.00;;
2305;SDS011;1161;51.922;8.896;2023-09-30T13:12:52;10.90;;;5.83;;
2305;SDS011;1161;51.922;8.896;2023-09-30T13:15:19;5.70;;;4.30;;
2305;SDS011;1161;51.922;8.896;2023-09-30T13:17:47;7.73;;;4.30;;
2305;SDS011;1161;51.922;8.896;2023-09-30T13:20:14;11.33;;;3.70;;
2305;SDS011;1161;51.922;8.896;2023-09-30T13:22:42;13.47;;;4.33;;
2305;SDS011;1161;51.922;8.896;2023-09-30T13:25:09;5.63;;;3.80;;
2305;SDS011;1161;51.922;8.896;2023-09-30T13:27:38;9.10;;;4.80;;
2305;SDS011;1161;51.922;8.896;2023-09-30T13:30:06;12.50;;;4.53;;
2305;SDS011;1161;51.922;8.896;2023-09-30T13:32:33;11.00;;;4.50;;
2305;SDS011;1161;51.922;8.896;2023-09-30T13:35:01;11.47;;;4.03;;
2305;SDS011;1161;51.922;8.896;2023-09-30T13:37:28;17.43;;;4.97;;
2305;SDS011;1161;51.922;8.896;2023-09-30T13:40:00;13.93;;;5.10;;
2305;SDS011;1161;51.922;8.896;2023-09-30T13:42:28;8.53;;;5.00;;
2305;SDS011;1161;51.922;8.896;2023-09-30T13:44:55;7.30;;;4.63;;
2305;SDS011;1161;51.922;8.896;2023-09-30T13:47:24;17.57;;;6.40;;
2305;SDS011;1161;51.922;8.896;2023-09-30T13:49:51;11.33;;;5.60;;
2305;SDS011;1161;51.922;8.896;2023-09-30T13:52:18;5.73;;;4.40;;
2305;SDS011;1161;51.922;8.896;2023-09-30T13:54:45;9.67;;;4.63;;
2305;SDS011;1161;51.922;8.896;2023-09-30T13:57:13;16.17;;;5.40;;
2305;SDS011;1161;51.922;8.896;2023-09-30T13:59:40;11.57;;;5.90;;
2305;SDS011;1161;51.922;8.896;2023-09-30T14:02:08;12.27;;;4.90;;
2305;SDS011;1161;51.922;8.896;2023-09-30T14:04:35;8.17;;;4.90;;
2305;SDS011;1161;51.922;8.896;2023-09-30T14:07:02;10.83;;;4.80;;
2305;SDS011;1161;51.922;8.896;2023-09-30T14:09:29;10.40;;;5.73;;
2305;SDS011;1161;51.922;8.896;2023-09-30T14:11:55;13.00;;;4.87;;
2305;SDS011;1161;51.922;8.896;2023-09-30T14:14:26;12.90;;;4.20;;
2305;SDS011;1161;51.922;8.896;2023-09-30T14:16:52;7.67;;;4.63;;
2305;SDS011;1161;51.922;8.896;2023-09-30T14:19:19;4.43;;;3.90;;
2305;SDS011;1161;51.922;8.896;2023-09-30T14:21:46;8.70;;;4.80;;
2305;SDS011;1161;51.922;8.896;2023-09-30T14:24:14;15.90;;;4.37;;
2305;SDS011;1161;51.922;8.896;2023-09-30T14:26:41;11.40;;;4.97;;
2305;SDS011;1161;51.922;8.896;2023-09-30T14:29:09;17.43;;;5.83;;
2305;SDS011;1161;51.922;8.896;2023-09-30T14:31:38;6.47;;;4.40;;
2305;SDS011;1161;51.922;8.896;2023-09-30T14:34:06;8.77;;;4.07;;
2305;SDS011;1161;51.922;8.896;2023-09-30T14:36:33;8.00;;;3.87;;
2305;SDS011;1161;51.922;8.896;2023-09-30T14:39:00;6.80;;;3.03;;
2305;SDS011;1161;51.922;8.896;2023-09-30T14:41:26;3.20;;;2.90;;
2305;SDS011;1161;51.922;8.896;2023-09-30T14:43:53;5.77;;;4.10;;
2305;SDS011;1161;51.922;8.896;2023-09-30T14:46:20;4.83;;;3.40;;
2305;SDS011;1161;51.922;8.896;2023-09-30T14:48:48;7.10;;;4.60;;
2305;SDS011;1161;51.922;8.896;2023-09-30T14:51:15;11.80;;;4.60;;
2305;SDS011;1161;51.922;8.896;2023-09-30T14:53:46;5.63;;;4.20;;
2305;SDS011;1161;51.922;8.896;2023-09-30T14:56:16;19.17;;;5.10;;
2305;SDS011;1161;51.922;8.896;2023-09-30T14:58:44;8.27;;;4.30;;
2305;SDS011;1161;51.922;8.896;2023-09-30T15:01:11;3.67;;;3.30;;
2305;SDS011;1161;51.922;8.896;2023-09-30T15:03:38;8.43;;;3.93;;
2305;SDS011;1161;51.922;8.896;2023-09-30T15:06:06;6.03;;;4.33;;
2305;SDS011;1161;51.922;8.896;2023-09-30T15:08:34;7.90;;;4.10;;
2305;SDS011;1161;51.922;8.896;2023-09-30T15:11:01;11.43;;;4.17;;
2305;SDS011;1161;51.922;8.896;2023-09-30T15:13:28;8.27;;;3.60;;
2305;SDS011;1161;51.922;8.896;2023-09-30T15:15:55;5.27;;;3.30;;
2305;SDS011;1161;51.922;8.896;2023-09-30T15:18:22;8.23;;;4.07;;